createdAt,value
2019-05-14T00:02:02.796Z,63.70
2019-05-14T00:06:07.969Z,63.61
2019-05-14T00:10:13.389Z,63.46
2019-05-14T00:14:18.268Z,63.57
2019-05-14T00:18:23.156Z,64.03
2019-05-14T00:22:28.047Z,64.42
2019-05-14T00:26:32.937Z,64.54
2019-05-14T00:30:37.827Z,64.75
2019-05-14T00:34:42.722Z,64.81
2019-05-14T00:38:47.594Z,64.60
2019-05-14T00:42:53.285Z,64.65
2019-05-14T00:46:59.417Z,64.87
2019-05-14T00:51:04.312Z,64.65
2019-05-14T00:55:11.717Z,64.44
2019-05-14T00:59:16.429Z,64.89
2019-05-14T01:03:21.862Z,64.78
2019-05-14T01:07:26.838Z,64.84
2019-05-14T01:11:31.726Z,64.90
2019-05-14T01:15:36.608Z,64.95
2019-05-14T01:19:42.547Z,64.62
2019-05-14T01:23:47.673Z,64.56
2019-05-14T01:27:52.564Z,64.55
2019-05-14T01:31:57.451Z,63.95
2019-05-14T01:36:02.370Z,63.64
2019-05-14T01:40:08.055Z,63.38
2019-05-14T01:44:12.945Z,63.17
2019-05-14T01:48:17.837Z,62.98
2019-05-14T01:52:22.723Z,62.57
2019-05-14T01:56:27.620Z,62.59
2019-05-14T02:00:32.561Z,62.70
2019-05-14T02:04:37.454Z,62.82
2019-05-14T02:08:42.340Z,62.73
2019-05-14T02:12:47.240Z,62.67
2019-05-14T02:16:52.106Z,63.00
2019-05-14T02:20:56.995Z,63.09
2019-05-14T02:25:02.389Z,63.12
2019-05-14T02:29:08.321Z,63.38
2019-05-14T02:33:13.212Z,63.53
2019-05-14T02:37:19.423Z,63.77
2019-05-14T02:41:24.623Z,63.95
2019-05-14T02:45:30.347Z,64.02
2019-05-14T02:49:39.359Z,64.30
2019-05-14T02:53:43.099Z,64.49
2019-05-14T02:57:50.120Z,64.72
2019-05-14T03:01:54.568Z,64.97
2019-05-14T03:06:00.524Z,65.56
2019-05-14T03:10:09.629Z,66.11
2019-05-14T03:14:13.317Z,66.07
2019-05-14T03:18:19.912Z,66.17
2019-05-14T03:22:38.848Z,66.26
2019-05-14T03:26:31.553Z,66.15
2019-05-14T03:30:41.728Z,66.26
2019-05-14T03:34:44.098Z,66.40
2019-05-14T03:38:50.263Z,66.91
2019-05-14T03:42:55.485Z,66.91
2019-05-14T03:47:04.999Z,67.22
2019-05-14T03:51:09.031Z,67.16
2019-05-14T03:55:13.673Z,66.93
2019-05-14T03:59:19.977Z,66.65
2019-05-14T04:03:29.201Z,67.28
2019-05-14T04:07:34.356Z,67.63
2019-05-14T04:11:42.456Z,67.67
2019-05-14T04:15:49.714Z,68.05
2019-05-14T04:19:59.729Z,67.85
2019-05-14T04:24:04.550Z,67.49
2019-05-14T04:28:12.486Z,65.00
2019-05-14T04:32:20.382Z,62.78
2019-05-14T04:36:25.506Z,56.16
2019-05-14T04:40:30.407Z,48.67
2019-05-14T04:44:35.287Z,44.34
2019-05-14T04:48:43.428Z,41.03
2019-05-14T04:52:49.427Z,37.64
2019-05-14T04:56:53.375Z,36.78
2019-05-14T05:01:00.668Z,35.92
2019-05-14T05:05:08.828Z,34.54
2019-05-14T05:09:12.593Z,33.14
2019-05-14T05:13:18.433Z,33.84
2019-05-14T05:17:40.176Z,33.05
2019-05-14T05:21:30.185Z,32.08
2019-05-14T05:25:35.060Z,33.83
2019-05-14T05:29:39.949Z,31.88
2019-05-14T05:33:44.840Z,30.43
2019-05-14T05:37:49.736Z,30.77
2019-05-14T05:41:54.634Z,30.94
2019-05-14T05:45:59.528Z,29.30
2019-05-14T05:50:08.719Z,30.77
2019-05-14T05:54:13.310Z,31.27
2019-05-14T05:58:19.695Z,29.85
2019-05-14T06:02:24.673Z,29.23
2019-05-14T06:06:29.578Z,29.54
2019-05-14T06:10:34.469Z,30.04
2019-05-14T06:14:39.363Z,29.94
2019-05-14T06:18:44.272Z,29.37
2019-05-14T06:22:49.171Z,29.17
2019-05-14T06:26:54.066Z,30.42
2019-05-14T06:30:59.203Z,30.27
2019-05-14T06:35:08.806Z,31.09
2019-05-14T06:39:14.966Z,29.11
2019-05-14T06:43:19.859Z,30.23
2019-05-14T06:47:24.763Z,30.83
2019-05-14T06:51:29.648Z,30.59
2019-05-14T06:55:34.543Z,31.08
2019-05-14T06:59:39.442Z,32.04
2019-05-14T07:03:44.602Z,32.28
2019-05-14T07:07:49.588Z,34.14
2019-05-14T07:11:54.475Z,40.08
2019-05-14T07:15:59.365Z,44.32
2019-05-14T07:20:08.660Z,46.55
2019-05-14T07:24:14.172Z,48.91
2019-05-14T07:28:19.364Z,49.85
2019-05-14T07:32:24.381Z,50.08
2019-05-14T07:36:29.563Z,51.23
2019-05-14T07:40:34.587Z,51.20
2019-05-14T07:44:39.487Z,51.75
2019-05-14T07:48:44.381Z,51.15
2019-05-14T07:52:49.860Z,51.68
2019-05-14T07:56:54.840Z,51.02
2019-05-14T08:00:59.735Z,48.40
2019-05-14T08:05:08.628Z,50.00
2019-05-14T08:09:13.073Z,49.09
2019-05-14T08:13:19.111Z,49.87
2019-05-14T08:17:24.040Z,47.81
2019-05-14T08:21:29.436Z,49.08
2019-05-14T08:25:34.341Z,49.02
2019-05-14T08:29:40.100Z,48.15
2019-05-14T08:33:45.198Z,48.25
2019-05-14T08:38:03.450Z,47.58
2019-05-14T08:42:03.593Z,48.09
2019-05-14T08:46:03.282Z,48.24
2019-05-14T08:50:09.126Z,47.89
2019-05-14T08:54:14.182Z,47.91
2019-05-14T08:58:20.371Z,46.08
2019-05-14T09:02:25.459Z,45.25
2019-05-14T09:06:30.399Z,43.60
2019-05-14T09:10:35.350Z,44.71
2019-05-14T09:14:40.230Z,43.33
2019-05-14T09:18:45.136Z,44.54
2019-05-14T09:22:50.025Z,42.79
2019-05-14T09:26:54.922Z,43.11
2019-05-14T09:30:59.897Z,42.91
2019-05-14T09:35:06.042Z,41.78
2019-05-14T09:39:12.169Z,39.84
2019-05-14T09:43:18.269Z,40.48
2019-05-14T09:47:24.086Z,41.53
2019-05-14T09:51:29.002Z,39.52
2019-05-14T09:55:33.888Z,39.65
2019-05-14T09:59:38.776Z,40.84
2019-05-14T10:03:43.669Z,40.65
2019-05-14T10:07:49.503Z,40.42
2019-05-14T10:11:54.439Z,39.88
2019-05-14T10:15:59.340Z,38.56
2019-05-14T10:20:05.173Z,35.59
2019-05-14T10:24:10.053Z,35.79
2019-05-14T10:28:14.954Z,36.09
2019-05-14T10:32:19.844Z,37.63
2019-05-14T10:36:24.747Z,38.00
2019-05-14T10:40:29.691Z,39.14
2019-05-14T10:44:34.587Z,39.44
2019-05-14T10:48:39.757Z,38.61
2019-05-14T10:52:44.666Z,38.97
2019-05-14T10:56:49.680Z,38.14
2019-05-14T11:00:54.531Z,36.92
2019-05-14T11:04:59.448Z,38.27
2019-05-14T11:09:05.998Z,38.28
2019-05-14T11:13:10.912Z,38.27
2019-05-14T11:17:15.804Z,36.79
2019-05-14T11:21:26.353Z,36.71
2019-05-14T11:25:28.756Z,37.57
2019-05-14T11:29:33.772Z,37.80
2019-05-14T11:33:39.009Z,39.24
2019-05-14T11:37:44.141Z,37.85
2019-05-14T11:41:49.378Z,38.29
2019-05-14T11:45:54.455Z,36.49
2019-05-14T11:49:59.366Z,37.90
2019-05-14T11:54:04.339Z,36.86
2019-05-14T11:58:09.230Z,35.91
2019-05-14T12:02:14.121Z,34.05
2019-05-14T12:06:19.014Z,35.96
2019-05-14T12:10:23.906Z,36.27
2019-05-14T12:14:28.808Z,37.74
2019-05-14T12:18:33.703Z,35.83
2019-05-14T12:22:39.309Z,35.54
2019-05-14T12:26:45.640Z,34.84
2019-05-14T12:30:50.539Z,36.96
2019-05-14T12:34:55.435Z,37.08
2019-05-14T12:39:01.095Z,36.10
2019-05-14T12:43:09.548Z,35.66
2019-05-14T12:47:14.174Z,34.69
2019-05-14T12:51:19.083Z,35.10
2019-05-14T12:55:23.984Z,36.15
2019-05-14T12:59:28.901Z,36.36
2019-05-14T13:03:33.790Z,36.10
2019-05-14T13:07:41.551Z,35.13
2019-05-14T13:11:45.363Z,34.20
2019-05-14T13:15:50.256Z,35.09
2019-05-14T13:19:55.149Z,35.48
2019-05-14T13:24:00.037Z,36.34
2019-05-14T13:28:04.928Z,36.47
2019-05-14T13:32:12.311Z,36.57
2019-05-14T13:36:19.768Z,35.47
2019-05-14T13:40:23.105Z,34.75
2019-05-14T13:44:29.167Z,33.95
2019-05-14T13:48:38.279Z,33.59
2019-05-14T13:52:58.248Z,33.18
2019-05-14T13:56:48.383Z,33.34
2019-05-14T14:00:53.455Z,33.20
2019-05-14T14:04:58.999Z,32.17
2019-05-14T14:09:11.952Z,33.70
2019-05-14T14:13:12.199Z,33.70
2019-05-14T14:17:18.463Z,34.14
2019-05-14T14:21:23.582Z,33.42
2019-05-14T14:25:29.769Z,33.26
2019-05-14T14:29:34.846Z,32.06
2019-05-14T14:33:39.764Z,32.58
2019-05-14T14:37:44.649Z,32.56
2019-05-14T14:41:49.553Z,32.88
2019-05-14T14:45:54.448Z,33.06
2019-05-14T14:50:00.388Z,33.08
2019-05-14T14:54:11.904Z,32.16
2019-05-14T14:58:12.138Z,33.81
2019-05-14T15:02:19.711Z,33.87
2019-05-14T15:06:23.596Z,33.34
2019-05-14T15:10:28.628Z,33.23
2019-05-14T15:14:33.474Z,33.92
2019-05-14T15:18:38.752Z,33.84
2019-05-14T15:22:43.839Z,34.12
2019-05-14T15:26:48.908Z,33.82
2019-05-14T15:30:53.803Z,34.94
2019-05-14T15:34:59.603Z,35.34
2019-05-14T15:39:09.742Z,34.67
2019-05-14T15:43:14.114Z,34.23
2019-05-14T15:47:19.080Z,34.00
2019-05-14T15:51:23.901Z,34.75
2019-05-14T15:55:28.978Z,34.18
2019-05-14T15:59:33.867Z,34.84
2019-05-14T16:03:41.376Z,35.98
2019-05-14T16:07:45.406Z,35.87
2019-05-14T16:11:50.297Z,36.18
2019-05-14T16:15:55.199Z,36.26
2019-05-14T16:20:00.475Z,36.41
2019-05-14T16:24:05.352Z,36.42
2019-05-14T16:28:10.233Z,36.87
2019-05-14T16:32:15.144Z,36.75
2019-05-14T16:36:20.052Z,38.01
2019-05-14T16:40:24.930Z,37.53
2019-05-14T16:44:30.809Z,37.49
2019-05-14T16:48:35.692Z,37.36
2019-05-14T16:52:42.305Z,36.80
2019-05-14T16:56:48.293Z,36.40
2019-05-14T17:00:53.362Z,36.96
2019-05-14T17:04:59.062Z,36.74
2019-05-14T17:09:05.455Z,35.86
2019-05-14T17:13:10.367Z,35.84
2019-05-14T17:17:15.267Z,36.49
2019-05-14T17:21:20.157Z,36.63
2019-05-14T17:25:27.004Z,37.03
2019-05-14T17:29:31.643Z,37.18
2019-05-14T17:33:39.173Z,36.95
2019-05-14T17:37:43.127Z,37.90
2019-05-14T17:41:48.527Z,37.64
2019-05-14T17:45:53.509Z,37.80
2019-05-14T17:49:59.092Z,37.95
2019-05-14T17:54:03.966Z,38.16
2019-05-14T17:58:13.149Z,37.89
2019-05-14T18:02:15.480Z,38.08
2019-05-14T18:06:20.376Z,38.55
2019-05-14T18:10:25.272Z,38.45
2019-05-14T18:14:30.155Z,38.80
2019-05-14T18:18:35.121Z,38.90
2019-05-14T18:22:42.335Z,38.88
2019-05-14T18:26:48.108Z,38.67
2019-05-14T18:30:53.078Z,39.42
2019-05-14T18:34:58.251Z,39.75
2019-05-14T18:39:04.121Z,39.84
2019-05-14T18:43:09.083Z,40.40
2019-05-14T18:47:16.841Z,40.50
2019-05-14T18:51:20.570Z,41.40
2019-05-14T18:55:25.841Z,41.79
2019-05-14T18:59:31.083Z,41.98
2019-05-14T19:03:39.300Z,42.30
2019-05-14T19:07:42.597Z,42.64
2019-05-14T19:11:48.266Z,42.74
2019-05-14T19:15:53.261Z,43.24
2019-05-14T19:19:58.972Z,43.44
2019-05-14T19:24:04.029Z,43.66
2019-05-14T19:28:09.015Z,44.20
2019-05-14T19:32:14.861Z,44.53
2019-05-14T19:36:19.759Z,44.79
2019-05-14T19:40:24.658Z,45.07
2019-05-14T19:44:29.821Z,45.40
2019-05-14T19:48:34.815Z,45.43
2019-05-14T19:52:39.712Z,45.94
2019-05-14T19:56:55.701Z,46.32
2019-05-14T20:00:51.209Z,46.66
2019-05-14T20:04:58.660Z,47.61
2019-05-14T20:09:03.052Z,48.43
2019-05-14T20:13:08.407Z,49.08
2019-05-14T20:17:14.270Z,49.53
2019-05-14T20:21:19.160Z,50.11
2019-05-14T20:25:24.054Z,50.46
2019-05-14T20:29:28.927Z,50.86
2019-05-14T20:33:33.883Z,50.81
2019-05-14T20:37:39.181Z,51.60
2019-05-14T20:41:44.146Z,52.55
2019-05-14T20:45:49.189Z,53.19
2019-05-14T20:49:53.991Z,53.70
2019-05-14T20:53:58.873Z,53.76
2019-05-14T20:58:03.769Z,54.42
2019-05-14T21:02:08.661Z,54.87
2019-05-14T21:06:13.552Z,55.51
2019-05-14T21:10:19.260Z,56.08
2019-05-14T21:14:25.349Z,56.62
2019-05-14T21:18:35.034Z,57.27
2019-05-14T21:22:39.710Z,57.63
2019-05-14T21:26:43.369Z,57.70
2019-05-14T21:30:48.647Z,57.70
2019-05-14T21:34:53.613Z,58.19
2019-05-14T21:38:58.768Z,58.65
2019-05-14T21:43:03.661Z,58.97
2019-05-14T21:47:08.549Z,59.04
2019-05-14T21:51:13.424Z,59.41
2019-05-14T21:55:19.834Z,60.05
2019-05-14T21:59:24.885Z,60.23
2019-05-14T22:03:29.844Z,59.78
2019-05-14T22:07:34.732Z,59.94
2019-05-14T22:11:39.681Z,60.76
2019-05-14T22:15:44.570Z,61.67
2019-05-14T22:19:49.461Z,61.67
2019-05-14T22:23:54.346Z,61.62
2019-05-14T22:28:11.595Z,61.56
2019-05-14T22:32:08.193Z,61.71
2019-05-14T22:36:13.281Z,61.97
2019-05-14T22:40:18.449Z,62.17
2019-05-14T22:44:23.276Z,62.73
2019-05-14T22:48:28.165Z,62.85
2019-05-14T22:52:33.048Z,63.24
2019-05-14T22:56:38.911Z,63.51
2019-05-14T23:00:48.136Z,63.93
2019-05-14T23:04:50.714Z,63.80
2019-05-14T23:08:58.004Z,63.77
2019-05-14T23:13:02.171Z,64.16
2019-05-14T23:17:08.042Z,65.28
2019-05-14T23:21:13.222Z,65.51
2019-05-14T23:25:18.601Z,65.58
2019-05-14T23:29:23.568Z,65.75
2019-05-14T23:33:28.908Z,66.49
2019-05-14T23:37:34.844Z,67.41
2019-05-14T23:41:39.800Z,67.60
2019-05-14T23:45:44.682Z,67.42
2019-05-14T23:49:49.572Z,67.72
2019-05-14T23:53:54.441Z,67.64
2019-05-14T23:57:59.332Z,67.68
